createdAt,value
2018-12-20T00:00:50.728Z,5.24
2018-12-20T00:01:49.952Z,5.10
2018-12-20T00:02:50.699Z,5.16
2018-12-20T00:03:49.822Z,5.10
2018-12-20T00:04:50.659Z,5.16
2018-12-20T00:05:49.933Z,5.20
2018-12-20T00:06:49.845Z,5.12
2018-12-20T00:07:49.792Z,5.13
2018-12-20T00:08:49.659Z,5.20
2018-12-20T00:09:49.693Z,5.20
2018-12-20T00:10:49.578Z,5.16
2018-12-20T00:11:49.723Z,5.13
2018-12-20T00:12:50.383Z,5.18
2018-12-20T00:13:49.664Z,5.23
2018-12-20T00:14:49.476Z,5.16
2018-12-20T00:15:50.206Z,5.21
2018-12-20T00:16:50.228Z,5.10
2018-12-20T00:17:49.375Z,5.13
2018-12-20T00:18:49.771Z,5.09
2018-12-20T00:19:50.218Z,5.15
2018-12-20T00:20:49.292Z,5.16
2018-12-20T00:21:50.288Z,5.20
2018-12-20T00:22:50.218Z,5.12
2018-12-20T00:23:49.704Z,5.12
2018-12-20T00:24:49.781Z,5.18
2018-12-20T00:25:49.183Z,5.10
2018-12-20T00:26:49.049Z,5.16
2018-12-20T00:27:49.075Z,5.13
2018-12-20T00:28:49.052Z,5.15
2018-12-20T00:29:48.954Z,5.13
2018-12-20T00:30:49.035Z,5.16
2018-12-20T00:31:48.891Z,5.20
2018-12-20T00:32:48.850Z,5.15
2018-12-20T00:33:48.869Z,5.15
2018-12-20T00:34:49.753Z,5.12
2018-12-20T00:35:49.275Z,5.08
2018-12-20T00:36:50.106Z,5.13
2018-12-20T00:37:49.792Z,5.23
2018-12-20T00:38:49.690Z,5.13
2018-12-20T00:39:49.218Z,5.23
2018-12-20T00:40:48.641Z,5.13
2018-12-20T00:41:48.536Z,5.18
2018-12-20T00:42:48.698Z,5.13
2018-12-20T00:43:48.476Z,5.08
2018-12-20T00:44:48.598Z,5.21
2018-12-20T00:45:49.310Z,5.13
2018-12-20T00:46:48.492Z,5.15
2018-12-20T00:47:48.434Z,5.20
2018-12-20T00:48:48.464Z,5.16
2018-12-20T00:49:48.303Z,5.13
2018-12-20T00:50:49.270Z,5.02
2018-12-20T00:51:48.216Z,5.16
2018-12-20T00:52:48.258Z,5.26
2018-12-20T00:53:48.183Z,5.23
2018-12-20T00:54:48.748Z,5.18
2018-12-20T00:55:48.194Z,5.12
2018-12-20T00:56:48.118Z,5.13
2018-12-20T00:57:48.072Z,5.09
2018-12-20T00:58:47.974Z,5.12
2018-12-20T00:59:48.729Z,5.09
2018-12-20T01:00:48.055Z,5.16
2018-12-20T01:01:47.966Z,5.20
2018-12-20T01:02:55.068Z,5.12
2018-12-20T01:03:47.902Z,5.06
2018-12-20T01:04:47.812Z,5.12
2018-12-20T01:05:48.769Z,5.09
2018-12-20T01:06:47.710Z,5.12
2018-12-20T01:07:47.868Z,5.10
2018-12-20T01:08:47.694Z,5.09
2018-12-20T01:09:47.627Z,5.05
2018-12-20T01:10:47.648Z,5.09
2018-12-20T01:11:47.608Z,5.10
2018-12-20T01:12:48.124Z,5.09
2018-12-20T01:13:47.569Z,5.16
2018-12-20T01:14:47.453Z,5.15
2018-12-20T01:15:48.240Z,5.16
2018-12-20T01:16:47.445Z,5.08
2018-12-20T01:17:47.373Z,5.15
2018-12-20T01:18:47.831Z,5.10
2018-12-20T01:19:48.225Z,5.15
2018-12-20T01:20:47.322Z,5.13
2018-12-20T01:21:47.214Z,5.09
2018-12-20T01:22:47.922Z,5.20
2018-12-20T01:23:47.284Z,5.15
2018-12-20T01:24:47.706Z,5.12
2018-12-20T01:25:47.196Z,5.08
2018-12-20T01:26:47.034Z,5.02
2018-12-20T01:27:47.693Z,5.05
2018-12-20T01:28:47.247Z,5.24
2018-12-20T01:29:47.268Z,5.12
2018-12-20T01:30:47.819Z,5.12
2018-12-20T01:31:46.884Z,5.13
2018-12-20T01:32:47.700Z,5.15
2018-12-20T01:33:47.047Z,5.08
2018-12-20T01:34:47.387Z,5.10
2018-12-20T01:35:46.916Z,5.12
2018-12-20T01:36:46.788Z,5.09
2018-12-20T01:37:47.209Z,5.08
2018-12-20T01:38:46.747Z,5.10
2018-12-20T01:39:46.765Z,5.09
2018-12-20T01:40:46.724Z,5.08
2018-12-20T01:41:47.193Z,5.15
2018-12-20T01:42:46.574Z,5.12
2018-12-20T01:43:46.581Z,5.12
2018-12-20T01:44:53.531Z,5.13
2018-12-20T01:45:46.455Z,5.08
2018-12-20T01:46:47.181Z,5.10
2018-12-20T01:47:46.489Z,5.12
2018-12-20T01:48:47.183Z,5.08
2018-12-20T01:49:46.433Z,5.13
2018-12-20T01:50:46.291Z,5.09
2018-12-20T01:51:47.370Z,5.16
2018-12-20T01:52:46.205Z,5.12
2018-12-20T01:53:46.334Z,5.12
2018-12-20T01:54:46.689Z,5.12
2018-12-20T01:55:46.183Z,5.16
2018-12-20T01:56:46.739Z,5.10
2018-12-20T01:57:46.006Z,5.08
2018-12-20T01:58:46.244Z,5.05
2018-12-20T01:59:46.939Z,5.20
2018-12-20T02:00:46.769Z,5.16
2018-12-20T02:01:46.742Z,5.10
2018-12-20T02:02:46.901Z,5.13
2018-12-20T02:03:46.253Z,5.05
2018-12-20T02:04:46.682Z,5.12
2018-12-20T02:05:46.890Z,5.10
2018-12-20T02:06:46.415Z,5.12
2018-12-20T02:07:45.674Z,5.08
2018-12-20T02:08:45.715Z,5.08
2018-12-20T02:09:45.639Z,5.16
2018-12-20T02:10:45.563Z,5.16
2018-12-20T02:11:45.854Z,5.05
2018-12-20T02:12:45.668Z,5.09
2018-12-20T02:13:45.838Z,5.13
2018-12-20T02:14:45.598Z,5.06
2018-12-20T02:15:45.442Z,5.13
2018-12-20T02:16:45.488Z,5.05
2018-12-20T02:17:45.531Z,5.10
2018-12-20T02:18:45.324Z,5.10
2018-12-20T02:19:45.262Z,5.12
2018-12-20T02:20:45.409Z,5.08
2018-12-20T02:21:45.198Z,5.06
2018-12-20T02:22:45.347Z,5.08
2018-12-20T02:23:45.145Z,4.95
2018-12-20T02:24:45.094Z,4.95
2018-12-20T02:25:45.231Z,4.97
2018-12-20T02:26:45.027Z,4.91
2018-12-20T02:27:44.999Z,5.06
2018-12-20T02:28:45.163Z,4.95
2018-12-20T02:29:45.703Z,4.98
2018-12-20T02:30:45.271Z,4.95
2018-12-20T02:31:45.014Z,5.09
2018-12-20T02:32:45.080Z,5.05
2018-12-20T02:33:45.095Z,5.08
2018-12-20T02:34:44.820Z,5.12
2018-12-20T02:35:44.740Z,5.10
2018-12-20T02:36:44.736Z,5.00
2018-12-20T02:37:44.820Z,5.10
2018-12-20T02:38:44.663Z,4.92
2018-12-20T02:39:44.761Z,4.91
2018-12-20T02:40:44.710Z,4.94
2018-12-20T02:41:44.550Z,4.95
2018-12-20T02:42:44.516Z,4.98
2018-12-20T02:43:44.473Z,4.91
2018-12-20T02:44:44.528Z,4.92
2018-12-20T02:45:44.478Z,4.97
2018-12-20T02:46:44.590Z,4.97
2018-12-20T02:47:44.363Z,4.94
2018-12-20T02:48:44.303Z,4.92
2018-12-20T02:49:44.440Z,4.88
2018-12-20T02:50:44.288Z,4.90
2018-12-20T02:51:44.807Z,4.92
2018-12-20T02:52:44.303Z,5.00
2018-12-20T02:53:44.126Z,4.97
2018-12-20T02:54:44.363Z,5.00
2018-12-20T02:55:44.195Z,4.95
2018-12-20T02:56:44.301Z,4.94
2018-12-20T02:57:44.485Z,4.98
2018-12-20T02:58:44.311Z,4.91
2018-12-20T02:59:43.933Z,5.10
2018-12-20T03:00:43.903Z,4.95
2018-12-20T03:01:44.912Z,4.92
2018-12-20T03:02:43.949Z,4.95
2018-12-20T03:03:43.808Z,4.91
2018-12-20T03:04:43.776Z,4.94
2018-12-20T03:05:43.826Z,5.02
2018-12-20T03:06:43.693Z,4.95
2018-12-20T03:07:46.806Z,5.00
2018-12-20T03:08:43.857Z,4.94
2018-12-20T03:09:43.599Z,4.95
2018-12-20T03:10:43.566Z,4.97
2018-12-20T03:11:43.552Z,4.95
2018-12-20T03:12:43.601Z,4.97
2018-12-20T03:13:43.619Z,4.97
2018-12-20T03:14:43.667Z,5.05
2018-12-20T03:15:44.207Z,4.95
2018-12-20T03:16:43.600Z,5.03
2018-12-20T03:17:43.552Z,4.92
2018-12-20T03:18:43.383Z,5.00
2018-12-20T03:19:43.823Z,4.92
2018-12-20T03:20:44.234Z,5.05
2018-12-20T03:21:44.259Z,5.05
2018-12-20T03:22:43.159Z,4.98
2018-12-20T03:23:43.738Z,4.94
2018-12-20T03:24:43.259Z,5.02
2018-12-20T03:25:43.828Z,4.95
2018-12-20T03:26:43.254Z,5.02
2018-12-20T03:27:43.865Z,4.98
2018-12-20T03:28:43.238Z,4.95
2018-12-20T03:29:42.972Z,4.94
2018-12-20T03:30:42.894Z,4.94
2018-12-20T03:31:42.860Z,5.00
2018-12-20T03:32:42.942Z,5.05
2018-12-20T03:33:43.995Z,4.97
2018-12-20T03:34:42.837Z,5.03
2018-12-20T03:35:42.784Z,4.97
2018-12-20T03:36:42.872Z,4.95
2018-12-20T03:37:42.997Z,4.95
2018-12-20T03:38:43.402Z,5.02
2018-12-20T03:39:42.807Z,4.95
2018-12-20T03:40:43.240Z,4.97
2018-12-20T03:41:42.746Z,5.02
2018-12-20T03:42:42.537Z,5.00
2018-12-20T03:43:43.253Z,5.05
2018-12-20T03:44:42.955Z,4.97
2018-12-20T03:45:42.673Z,5.02
2018-12-20T03:46:43.214Z,4.97
2018-12-20T03:47:43.273Z,5.03
2018-12-20T03:48:42.456Z,4.97
2018-12-20T03:49:42.763Z,5.03
2018-12-20T03:50:43.277Z,4.97
2018-12-20T03:51:43.504Z,4.91
2018-12-20T03:52:42.438Z,5.03
2018-12-20T03:53:42.210Z,5.03
2018-12-20T03:54:42.287Z,4.95
2018-12-20T03:55:42.423Z,5.02
2018-12-20T03:56:42.780Z,5.10
2018-12-20T03:57:42.025Z,4.95
2018-12-20T03:58:42.685Z,5.02
2018-12-20T03:59:42.591Z,5.02
2018-12-20T04:00:41.908Z,5.03
2018-12-20T04:01:42.700Z,4.95
2018-12-20T04:02:42.015Z,4.94
2018-12-20T04:03:42.684Z,4.95
2018-12-20T04:04:41.797Z,4.95
2018-12-20T04:05:43.146Z,4.94
2018-12-20T04:06:41.833Z,4.90
2018-12-20T04:07:41.661Z,4.94
2018-12-20T04:08:42.186Z,4.88
2018-12-20T04:09:42.244Z,4.87
2018-12-20T04:10:41.743Z,4.92
2018-12-20T04:11:42.194Z,4.91
2018-12-20T04:12:41.612Z,4.88
2018-12-20T04:13:41.480Z,4.91
2018-12-20T04:14:41.432Z,4.91
2018-12-20T04:15:41.439Z,4.88
2018-12-20T04:16:41.362Z,4.91
2018-12-20T04:17:42.437Z,4.87
2018-12-20T04:18:41.475Z,4.90
2018-12-20T04:19:46.597Z,4.85
2018-12-20T04:20:41.465Z,4.97
2018-12-20T04:21:41.353Z,4.94
2018-12-20T04:22:41.328Z,4.91
2018-12-20T04:23:41.896Z,4.97
2018-12-20T04:24:41.222Z,4.92
2018-12-20T04:25:41.770Z,4.94
2018-12-20T04:26:41.406Z,4.92
2018-12-20T04:27:49.914Z,4.88
2018-12-20T04:28:40.954Z,4.87
2018-12-20T04:29:41.159Z,4.91
2018-12-20T04:30:40.946Z,5.02
2018-12-20T04:31:40.925Z,4.94
2018-12-20T04:32:41.720Z,4.95
2018-12-20T04:33:41.213Z,5.00
2018-12-20T04:34:41.705Z,4.92
2018-12-20T04:35:40.759Z,4.92
2018-12-20T04:36:40.686Z,4.91
2018-12-20T04:37:40.691Z,4.91
2018-12-20T04:38:40.707Z,4.92
2018-12-20T04:39:40.679Z,4.92
2018-12-20T04:40:40.550Z,4.91
2018-12-20T04:41:40.521Z,4.91
2018-12-20T04:42:40.628Z,4.91
2018-12-20T04:43:40.738Z,4.90
2018-12-20T04:44:40.417Z,4.92
2018-12-20T04:45:46.666Z,4.94
2018-12-20T04:46:40.346Z,4.94
2018-12-20T04:47:40.398Z,4.91
2018-12-20T04:48:40.426Z,4.85
2018-12-20T04:49:40.277Z,4.94
2018-12-20T04:50:40.217Z,4.88
2018-12-20T04:51:40.304Z,4.91
2018-12-20T04:52:40.275Z,4.88
2018-12-20T04:53:40.304Z,4.88
2018-12-20T04:54:40.707Z,4.95
2018-12-20T04:55:40.747Z,4.94
2018-12-20T04:56:40.042Z,4.91
2018-12-20T04:57:40.114Z,4.87
2018-12-20T04:58:40.296Z,4.91
2018-12-20T04:59:40.861Z,4.85
2018-12-20T05:00:40.765Z,4.94
2018-12-20T05:01:40.821Z,4.88
2018-12-20T05:02:40.751Z,4.90
2018-12-20T05:03:40.312Z,4.91
2018-12-20T05:04:39.742Z,4.91
2018-12-20T05:05:39.708Z,4.91
2018-12-20T05:06:40.233Z,4.94
2018-12-20T05:07:39.644Z,4.88
2018-12-20T05:08:39.833Z,4.91
2018-12-20T05:09:40.211Z,4.91
2018-12-20T05:10:40.210Z,4.87
2018-12-20T05:11:40.428Z,4.90
2018-12-20T05:12:40.455Z,4.88
2018-12-20T05:13:39.769Z,4.90
2018-12-20T05:14:39.902Z,4.90
2018-12-20T05:15:39.378Z,4.92
2018-12-20T05:16:39.403Z,4.92
2018-12-20T05:17:39.309Z,4.95
2018-12-20T05:18:39.355Z,4.98
2018-12-20T05:19:39.597Z,4.94
2018-12-20T05:20:39.281Z,4.94
2018-12-20T05:21:39.218Z,4.91
2018-12-20T05:22:39.361Z,4.98
2018-12-20T05:23:39.115Z,4.90
2018-12-20T05:24:39.151Z,4.92
2018-12-20T05:25:39.095Z,4.88
2018-12-20T05:26:39.022Z,4.94
2018-12-20T05:27:39.264Z,4.95
2018-12-20T05:28:38.945Z,4.94
2018-12-20T05:29:39.734Z,4.95
2018-12-20T05:30:38.924Z,4.97
2018-12-20T05:31:39.026Z,4.95
2018-12-20T05:32:38.860Z,5.00
2018-12-20T05:33:39.806Z,4.95
2018-12-20T05:34:38.751Z,5.00
2018-12-20T05:35:38.904Z,5.00
2018-12-20T05:36:38.678Z,4.95
2018-12-20T05:37:39.328Z,4.94
2018-12-20T05:38:38.711Z,4.95
2018-12-20T05:39:39.251Z,5.08
2018-12-20T05:40:38.601Z,4.92
2018-12-20T05:41:38.687Z,4.92
2018-12-20T05:42:39.263Z,5.00
2018-12-20T05:43:38.441Z,4.92
2018-12-20T05:44:38.746Z,4.94
2018-12-20T05:45:38.439Z,5.03
2018-12-20T05:46:39.217Z,5.02
2018-12-20T05:47:39.214Z,4.90
2018-12-20T05:48:38.766Z,4.88
2018-12-20T05:49:38.408Z,4.88
2018-12-20T05:50:38.267Z,4.87
2018-12-20T05:51:38.713Z,4.88
2018-12-20T05:52:38.138Z,4.95
2018-12-20T05:53:38.114Z,4.87
2018-12-20T05:54:38.367Z,4.88
2018-12-20T05:55:38.918Z,4.87
2018-12-20T05:56:38.913Z,4.88
2018-12-20T05:57:37.999Z,4.91
2018-12-20T05:58:38.204Z,4.95
2018-12-20T05:59:38.797Z,4.92
2018-12-20T06:00:38.799Z,4.85
2018-12-20T06:01:38.878Z,4.76
2018-12-20T06:02:38.339Z,4.72
2018-12-20T06:03:37.773Z,4.76
2018-12-20T06:04:37.749Z,4.69
2018-12-20T06:05:37.911Z,4.68
2018-12-20T06:06:38.019Z,4.71
2018-12-20T06:07:37.783Z,4.66
2018-12-20T06:08:37.603Z,4.64
2018-12-20T06:09:37.889Z,4.57
2018-12-20T06:10:37.558Z,4.54
2018-12-20T06:11:37.794Z,4.48
2018-12-20T06:12:37.738Z,4.46
2018-12-20T06:13:37.476Z,4.51
2018-12-20T06:14:37.471Z,4.47
2018-12-20T06:15:37.604Z,4.46
2018-12-20T06:16:37.332Z,4.42
2018-12-20T06:17:37.445Z,4.42
2018-12-20T06:18:37.267Z,4.47
2018-12-20T06:19:37.237Z,4.36
2018-12-20T06:20:37.309Z,4.39
2018-12-20T06:21:37.165Z,4.35
2018-12-20T06:22:37.152Z,4.38
2018-12-20T06:23:37.104Z,4.28
2018-12-20T06:24:37.080Z,4.26
2018-12-20T06:25:37.181Z,4.28
2018-12-20T06:26:36.995Z,4.21
2018-12-20T06:27:36.981Z,4.28
2018-12-20T06:28:36.937Z,4.26
2018-12-20T06:29:36.895Z,4.30
2018-12-20T06:30:36.932Z,4.18
2018-12-20T06:31:36.820Z,4.18
2018-12-20T06:32:37.750Z,4.15
2018-12-20T06:33:36.758Z,4.15
2018-12-20T06:34:36.723Z,4.15
2018-12-20T06:35:36.742Z,4.14
2018-12-20T06:36:36.652Z,4.11
2018-12-20T06:37:36.618Z,4.12
2018-12-20T06:38:37.220Z,4.14
2018-12-20T06:39:36.559Z,4.08
2018-12-20T06:40:36.669Z,4.14
2018-12-20T06:41:36.485Z,4.12
2018-12-20T06:42:37.220Z,4.08
2018-12-20T06:43:36.449Z,4.14
2018-12-20T06:44:36.388Z,4.12
2018-12-20T06:45:36.388Z,4.10
2018-12-20T06:46:36.317Z,4.08
2018-12-20T06:47:36.289Z,4.08
2018-12-20T06:48:36.309Z,4.11
2018-12-20T06:49:36.215Z,4.12
2018-12-20T06:50:36.175Z,4.20
2018-12-20T06:51:36.189Z,4.15
2018-12-20T06:52:36.112Z,4.11
2018-12-20T06:53:36.082Z,4.14
2018-12-20T06:54:36.047Z,4.03
2018-12-20T06:55:36.007Z,4.12
2018-12-20T06:56:36.015Z,4.03
2018-12-20T06:57:35.942Z,4.04
2018-12-20T06:58:35.942Z,4.11
2018-12-20T06:59:35.871Z,4.03
2018-12-20T07:00:35.884Z,4.11
2018-12-20T07:01:35.803Z,4.07
2018-12-20T07:02:35.810Z,4.04
2018-12-20T07:03:35.770Z,4.04
2018-12-20T07:04:35.697Z,4.08
2018-12-20T07:05:35.710Z,4.04
2018-12-20T07:06:35.634Z,3.96
2018-12-20T07:07:35.641Z,3.99
2018-12-20T07:08:35.563Z,4.04
2018-12-20T07:09:35.531Z,3.90
2018-12-20T07:10:35.647Z,4.08
2018-12-20T07:11:35.463Z,3.94
2018-12-20T07:12:35.478Z,3.94
2018-12-20T07:13:35.391Z,4.03
2018-12-20T07:14:35.354Z,4.04
2018-12-20T07:15:35.327Z,4.04
2018-12-20T07:16:35.289Z,4.07
2018-12-20T07:17:35.306Z,4.07
2018-12-20T07:18:35.223Z,3.94
2018-12-20T07:19:35.184Z,3.90
2018-12-20T07:20:35.149Z,3.96
2018-12-20T07:21:35.114Z,3.96
2018-12-20T07:22:35.126Z,3.97
2018-12-20T07:23:35.056Z,3.97
2018-12-20T07:24:35.056Z,4.08
2018-12-20T07:25:34.977Z,4.03
2018-12-20T07:26:34.941Z,4.02
2018-12-20T07:27:36.275Z,4.15
2018-12-20T07:28:34.877Z,4.14
2018-12-20T07:29:34.893Z,4.00
2018-12-20T07:30:35.722Z,4.03
2018-12-20T07:31:34.781Z,4.14
2018-12-20T07:32:34.735Z,4.04
2018-12-20T07:33:34.707Z,4.04
2018-12-20T07:34:34.714Z,4.10
2018-12-20T07:35:34.637Z,4.08
2018-12-20T07:36:34.597Z,3.99
2018-12-20T07:37:34.565Z,4.04
2018-12-20T07:38:34.530Z,4.00
2018-12-20T07:39:34.833Z,4.02
2018-12-20T07:40:34.507Z,4.02
2018-12-20T07:41:34.496Z,4.03
2018-12-20T07:42:34.397Z,4.07
2018-12-20T07:43:34.377Z,3.97
2018-12-20T07:44:34.328Z,4.04
2018-12-20T07:45:34.294Z,4.12
2018-12-20T07:46:37.929Z,4.08
2018-12-20T07:47:34.225Z,4.04
2018-12-20T07:48:34.194Z,4.04
2018-12-20T07:49:34.157Z,4.02
2018-12-20T07:50:34.167Z,4.12
2018-12-20T07:51:34.102Z,4.15
2018-12-20T07:52:34.205Z,4.15
2018-12-20T07:53:34.021Z,4.14
2018-12-20T07:54:33.988Z,4.08
2018-12-20T07:55:33.950Z,4.10
2018-12-20T07:56:33.914Z,4.10
2018-12-20T07:57:33.922Z,4.12
2018-12-20T07:58:33.908Z,4.11
2018-12-20T07:59:33.818Z,4.18
2018-12-20T08:00:33.812Z,4.14
2018-12-20T08:01:33.745Z,4.18
2018-12-20T08:02:33.712Z,4.22
2018-12-20T08:03:33.725Z,4.21
2018-12-20T08:04:33.641Z,4.24
2018-12-20T08:05:33.610Z,4.18
2018-12-20T08:06:33.619Z,4.21
2018-12-20T08:07:33.547Z,4.24
2018-12-20T08:08:33.503Z,4.24
2018-12-20T08:09:33.479Z,4.33
2018-12-20T08:10:33.438Z,4.22
2018-12-20T08:11:33.448Z,4.20
2018-12-20T08:12:33.421Z,4.21
2018-12-20T08:13:33.414Z,4.14
2018-12-20T08:14:33.302Z,4.29
2018-12-20T08:15:33.275Z,4.28
2018-12-20T08:16:33.237Z,4.26
2018-12-20T08:17:33.238Z,4.28
2018-12-20T08:18:33.171Z,4.30
2018-12-20T08:19:36.472Z,4.29
2018-12-20T08:20:33.100Z,4.28
2018-12-20T08:21:33.114Z,4.38
2018-12-20T08:22:33.080Z,4.39
2018-12-20T08:23:33.002Z,4.46
2018-12-20T08:24:32.961Z,4.48
2018-12-20T08:25:32.931Z,4.48
2018-12-20T08:26:32.894Z,4.54
2018-12-20T08:27:32.905Z,4.64
2018-12-20T08:28:32.867Z,4.57
2018-12-20T08:29:33.786Z,4.61
2018-12-20T08:30:32.808Z,4.60
2018-12-20T08:31:32.729Z,4.72
2018-12-20T08:32:32.695Z,4.69
2018-12-20T08:33:32.719Z,4.74
2018-12-20T08:34:32.627Z,4.83
2018-12-20T08:35:32.594Z,4.92
2018-12-20T08:36:32.562Z,4.91
2018-12-20T08:37:32.570Z,4.95
2018-12-20T08:38:32.496Z,4.90
2018-12-20T08:39:32.498Z,4.85
2018-12-20T08:40:32.424Z,4.94
2018-12-20T08:41:32.401Z,4.95
2018-12-20T08:42:32.363Z,5.00
2018-12-20T08:43:32.377Z,5.13
2018-12-20T08:44:33.230Z,5.12
2018-12-20T08:45:32.259Z,5.09
2018-12-20T08:46:32.737Z,5.18
2018-12-20T08:47:32.198Z,5.20
2018-12-20T08:48:32.207Z,5.09
2018-12-20T08:49:32.736Z,5.12
2018-12-20T08:50:32.092Z,5.13
2018-12-20T08:51:32.103Z,5.20
2018-12-20T08:52:32.279Z,5.15
2018-12-20T08:53:32.286Z,5.31
2018-12-20T08:54:32.734Z,5.30
2018-12-20T08:55:32.735Z,5.33
2018-12-20T08:56:32.734Z,5.30
2018-12-20T08:57:31.864Z,5.30
2018-12-20T08:58:31.874Z,5.28
2018-12-20T08:59:31.793Z,5.39
2018-12-20T09:00:32.801Z,5.39
2018-12-20T09:01:31.788Z,5.36
2018-12-20T09:02:31.697Z,5.36
2018-12-20T09:03:31.678Z,5.48
2018-12-20T09:04:31.676Z,5.52
2018-12-20T09:05:31.627Z,5.51
2018-12-20T09:06:31.585Z,5.55
2018-12-20T09:07:31.530Z,5.62
2018-12-20T09:08:31.498Z,5.73
2018-12-20T09:09:31.502Z,5.69
2018-12-20T09:10:31.434Z,5.63
2018-12-20T09:11:31.447Z,5.62
2018-12-20T09:12:31.366Z,5.66
2018-12-20T09:13:31.357Z,5.62
2018-12-20T09:14:31.344Z,5.69
2018-12-20T09:15:31.268Z,5.77
2018-12-20T09:16:31.270Z,5.75
2018-12-20T09:17:31.246Z,5.80
2018-12-20T09:18:31.181Z,5.81
2018-12-20T09:19:31.240Z,5.82
2018-12-20T09:20:32.888Z,5.88
2018-12-20T09:21:31.774Z,5.85
2018-12-20T09:22:31.090Z,5.84
2018-12-20T09:23:31.011Z,5.84
2018-12-20T09:24:31.746Z,5.88
2018-12-20T09:25:30.942Z,5.91
2018-12-20T09:26:30.952Z,5.95
2018-12-20T09:27:30.959Z,5.96
2018-12-20T09:28:30.845Z,5.92
2018-12-20T09:29:30.818Z,5.96
2018-12-20T09:30:30.974Z,5.91
2018-12-20T09:31:30.808Z,5.99
2018-12-20T09:32:30.718Z,6.00
2018-12-20T09:33:30.686Z,6.06
2018-12-20T09:34:30.684Z,6.07
2018-12-20T09:35:30.622Z,6.15
2018-12-20T09:36:30.797Z,6.15
2018-12-20T09:37:30.596Z,6.25
2018-12-20T09:38:30.569Z,6.05
2018-12-20T09:39:31.238Z,6.15
2018-12-20T09:40:30.462Z,6.07
2018-12-20T09:41:30.476Z,6.17
2018-12-20T09:42:30.402Z,6.07
2018-12-20T09:43:30.364Z,6.10
2018-12-20T09:44:30.340Z,6.13
2018-12-20T09:45:30.300Z,6.07
2018-12-20T09:46:30.314Z,6.21
2018-12-20T09:47:30.742Z,6.20
2018-12-20T09:48:30.205Z,6.29
2018-12-20T09:49:30.171Z,6.21
2018-12-20T09:50:30.132Z,6.25
2018-12-20T09:51:30.156Z,6.34
2018-12-20T09:52:30.125Z,6.33
2018-12-20T09:53:30.041Z,6.33
2018-12-20T09:54:30.013Z,6.33
2018-12-20T09:55:29.978Z,6.33
2018-12-20T09:56:29.955Z,6.28
2018-12-20T09:57:29.963Z,6.33
2018-12-20T09:58:29.922Z,6.33
2018-12-20T09:59:29.880Z,6.34
2018-12-20T10:00:29.823Z,6.46
2018-12-20T10:01:29.783Z,6.43
2018-12-20T10:02:30.745Z,6.39
2018-12-20T10:03:29.852Z,6.51
2018-12-20T10:04:29.694Z,6.51
2018-12-20T10:05:30.239Z,6.52
2018-12-20T10:06:30.248Z,6.58
2018-12-20T10:07:29.813Z,6.67
2018-12-20T10:08:30.242Z,6.52
2018-12-20T10:09:31.527Z,6.55
2018-12-20T10:10:29.494Z,6.51
2018-12-20T10:11:29.475Z,6.51
2018-12-20T10:12:29.475Z,6.65
2018-12-20T10:13:29.487Z,6.67
2018-12-20T10:14:29.418Z,6.65
2018-12-20T10:15:29.335Z,6.78
2018-12-20T10:16:29.307Z,6.82
2018-12-20T10:17:29.276Z,6.88
2018-12-20T10:18:29.287Z,7.00
2018-12-20T10:19:29.254Z,7.05
2018-12-20T10:20:29.183Z,6.97
2018-12-20T10:21:29.149Z,6.95
2018-12-20T10:22:29.112Z,7.01
2018-12-20T10:23:29.092Z,7.04
2018-12-20T10:24:29.094Z,7.03
2018-12-20T10:25:29.024Z,6.98
2018-12-20T10:26:28.992Z,7.09
2018-12-20T10:27:31.571Z,7.08
2018-12-20T10:28:28.934Z,7.08
2018-12-20T10:29:28.943Z,7.05
2018-12-20T10:30:28.865Z,7.04
2018-12-20T10:31:28.831Z,7.09
2018-12-20T10:32:28.803Z,7.12
2018-12-20T10:33:28.766Z,7.11
2018-12-20T10:34:28.778Z,7.22
2018-12-20T10:35:28.711Z,7.13
2018-12-20T10:36:28.680Z,7.09
2018-12-20T10:37:28.641Z,7.23
2018-12-20T10:38:28.724Z,7.29
2018-12-20T10:39:28.628Z,7.34
2018-12-20T10:40:28.551Z,7.37
2018-12-20T10:41:28.525Z,7.44
2018-12-20T10:42:28.510Z,7.52
2018-12-20T10:43:28.463Z,7.51
2018-12-20T10:44:28.476Z,7.58
2018-12-20T10:45:28.396Z,7.44
2018-12-20T10:46:28.367Z,7.41
2018-12-20T10:47:29.113Z,7.41
2018-12-20T10:48:28.310Z,7.51
2018-12-20T10:49:28.811Z,7.52
2018-12-20T10:50:28.245Z,7.49
2018-12-20T10:51:28.217Z,7.58
2018-12-20T10:52:28.750Z,7.61
2018-12-20T10:53:28.144Z,7.63
2018-12-20T10:54:28.317Z,7.64
2018-12-20T10:55:28.085Z,7.71
2018-12-20T10:56:28.753Z,7.68
2018-12-20T10:57:28.025Z,7.52
2018-12-20T10:58:28.013Z,7.58
2018-12-20T10:59:28.331Z,7.59
2018-12-20T11:00:27.929Z,7.63
2018-12-20T11:01:27.900Z,7.63
2018-12-20T11:02:27.873Z,7.56
2018-12-20T11:03:28.760Z,7.49
2018-12-20T11:04:27.853Z,7.61
2018-12-20T11:05:28.324Z,7.56
2018-12-20T11:06:27.750Z,7.64
2018-12-20T11:07:27.732Z,7.63
2018-12-20T11:08:27.682Z,7.68
2018-12-20T11:09:27.650Z,7.68
2018-12-20T11:10:27.689Z,7.68
2018-12-20T11:11:27.608Z,7.68
2018-12-20T11:12:27.560Z,7.63
2018-12-20T11:13:27.522Z,7.74
2018-12-20T11:14:27.594Z,7.73
2018-12-20T11:15:27.560Z,7.78
2018-12-20T11:16:27.478Z,7.75
2018-12-20T11:17:27.403Z,7.77
2018-12-20T11:18:28.259Z,7.70
2018-12-20T11:19:27.342Z,7.75
2018-12-20T11:20:27.306Z,7.70
2018-12-20T11:21:27.320Z,7.63
2018-12-20T11:22:27.249Z,7.52
2018-12-20T11:23:27.217Z,7.52
2018-12-20T11:24:27.189Z,7.41
2018-12-20T11:25:27.151Z,7.41
2018-12-20T11:26:27.187Z,7.40
2018-12-20T11:27:27.094Z,7.51
2018-12-20T11:28:27.060Z,7.52
2018-12-20T11:29:27.033Z,7.56
2018-12-20T11:30:27.006Z,7.49
2018-12-20T11:31:27.017Z,7.52
2018-12-20T11:32:26.933Z,7.51
2018-12-20T11:33:26.911Z,7.48
2018-12-20T11:34:26.948Z,7.36
2018-12-20T11:35:26.855Z,7.40
2018-12-20T11:36:26.897Z,7.40
2018-12-20T11:37:26.780Z,7.36
2018-12-20T11:38:26.744Z,7.48
2018-12-20T11:39:27.256Z,7.45
2018-12-20T11:40:26.738Z,7.54
2018-12-20T11:41:26.839Z,7.58
2018-12-20T11:42:26.628Z,7.67
2018-12-20T11:43:26.593Z,7.63
2018-12-20T11:44:26.627Z,7.47
2018-12-20T11:45:26.534Z,7.39
2018-12-20T11:46:26.547Z,7.36
2018-12-20T11:47:26.465Z,7.45
2018-12-20T11:48:26.435Z,7.49
2018-12-20T11:49:26.815Z,7.48
2018-12-20T11:50:27.261Z,7.48
2018-12-20T11:51:27.266Z,7.56
2018-12-20T11:52:26.309Z,7.61
2018-12-20T11:53:26.283Z,7.63
2018-12-20T11:54:26.397Z,7.73
2018-12-20T11:55:26.216Z,7.73
2018-12-20T11:56:26.189Z,7.78
2018-12-20T11:57:26.764Z,7.77
2018-12-20T11:58:26.270Z,7.80
2018-12-20T11:59:26.092Z,7.88
2018-12-20T12:00:26.068Z,7.89
2018-12-20T12:01:26.033Z,7.86
2018-12-20T12:02:26.772Z,7.89
2018-12-20T12:03:26.068Z,7.85
2018-12-20T12:04:26.029Z,7.95
2018-12-20T12:05:25.929Z,7.96
2018-12-20T12:06:25.879Z,7.98
2018-12-20T12:07:25.855Z,8.06
2018-12-20T12:08:25.908Z,8.10
2018-12-20T12:09:25.850Z,8.16
2018-12-20T12:10:25.760Z,8.19
2018-12-20T12:11:25.725Z,8.03
2018-12-20T12:12:25.695Z,8.07
2018-12-20T12:13:26.264Z,8.01
2018-12-20T12:14:25.828Z,7.82
2018-12-20T12:15:26.589Z,7.82
2018-12-20T12:16:25.571Z,7.91
2018-12-20T12:17:25.546Z,7.83
2018-12-20T12:18:25.508Z,7.78
2018-12-20T12:19:25.666Z,7.70
2018-12-20T12:20:25.454Z,7.77
2018-12-20T12:21:25.416Z,7.78
2018-12-20T12:22:25.387Z,7.88
2018-12-20T12:23:25.365Z,7.74
2018-12-20T12:24:25.381Z,7.89
2018-12-20T12:25:26.264Z,7.83
2018-12-20T12:26:25.275Z,7.73
2018-12-20T12:27:26.754Z,7.75
2018-12-20T12:28:25.767Z,7.73
2018-12-20T12:29:25.343Z,7.68
2018-12-20T12:30:25.807Z,7.74
2018-12-20T12:31:25.315Z,7.74
2018-12-20T12:32:25.077Z,7.75
2018-12-20T12:33:25.048Z,7.74
2018-12-20T12:34:25.761Z,7.71
2018-12-20T12:35:25.038Z,7.73
2018-12-20T12:36:24.951Z,7.68
2018-12-20T12:37:24.925Z,7.82
2018-12-20T12:38:24.894Z,7.71
2018-12-20T12:39:25.772Z,7.73
2018-12-20T12:40:24.889Z,7.71
2018-12-20T12:41:24.802Z,7.75
2018-12-20T12:42:24.768Z,7.75
2018-12-20T12:43:24.755Z,7.75
2018-12-20T12:44:25.268Z,7.74
2018-12-20T12:45:24.711Z,7.78
2018-12-20T12:46:24.655Z,7.67
2018-12-20T12:47:24.615Z,7.58
2018-12-20T12:48:25.267Z,7.58
2018-12-20T12:49:24.552Z,7.61
2018-12-20T12:50:24.556Z,7.64
2018-12-20T12:51:24.547Z,7.74
2018-12-20T12:52:24.472Z,7.71
2018-12-20T12:53:24.425Z,7.74
2018-12-20T12:54:24.432Z,7.74
2018-12-20T12:55:24.490Z,7.77
2018-12-20T12:56:24.334Z,7.80
2018-12-20T12:57:24.309Z,7.89
2018-12-20T12:58:24.767Z,7.85
2018-12-20T12:59:24.265Z,7.88
2018-12-20T13:00:24.276Z,7.91
2018-12-20T13:01:24.173Z,8.06
2018-12-20T13:02:24.156Z,8.07
2018-12-20T13:03:24.118Z,7.98
2018-12-20T13:04:24.086Z,8.01
2018-12-20T13:05:24.108Z,8.10
2018-12-20T13:06:24.062Z,8.13
2018-12-20T13:07:23.990Z,8.04
2018-12-20T13:08:24.793Z,8.09
2018-12-20T13:09:23.937Z,7.98
2018-12-20T13:10:23.903Z,7.99
2018-12-20T13:11:24.328Z,8.07
2018-12-20T13:12:23.847Z,8.21
2018-12-20T13:13:23.804Z,8.17
2018-12-20T13:14:24.771Z,8.16
2018-12-20T13:15:23.819Z,8.04
2018-12-20T13:16:24.271Z,8.13
2018-12-20T13:17:23.694Z,8.22
2018-12-20T13:18:23.669Z,8.29